This is the latest recevied weather packets stored in our database for station/object DG7YEO-13. If no packets are shown the sender has not sent any weather packets the latest 10 day(s).
| Time | Temp. | Humidity | Pressure | Rain* | Wind** | Luminosity | Snow |
|---|---|---|---|---|---|---|---|
| 1787476625 | 18.89° C | 62% | 1022.9 hPa | 0 mm | - | - | - |
| 1787475725 | 18.33° C | 64% | 1022.9 hPa | 0 mm | - | - | - |
| 1787474825 | 18.33° C | 66% | 1022.8 hPa | 0 mm | - | - | - |
| 1787473925 | 17.78° C | 72% | 1022.8 hPa | 0 mm | - | - | - |
| 1787473025 | 16.67° C | 75% | 1022.9 hPa | 0 mm | - | - | - |
| 1787472125 | 16.11° C | 78% | 1022.9 hPa | 0 mm | - | - | - |
| 1787471225 | 15.56° C | 82% | 1022.9 hPa | 0 mm | - | - | - |
| 1787470325 | 15° C | 84% | 1023 hPa | 0 mm | - | - | - |
| 1787469425 | 15° C | 85% | 1023.1 hPa | 0 mm | - | - | - |
| 1787468525 | 14.44° C | 85% | 1023 hPa | 0 mm | - | - | - |
| 1787467625 | 14.44° C | 86% | 1022.8 hPa | 0 mm | - | - | - |
| 1787466725 | 13.89° C | 87% | 1022.8 hPa | 0 mm | - | - | - |
| 1787465825 | 13.89° C | 88% | 1022.8 hPa | 0 mm | - | - | - |
| 1787464925 | 13.33° C | 88% | 1022.8 hPa | 0 mm | - | - | - |
| 1787464025 | 13.33° C | 89% | 1022.6 hPa | 0 mm | - | - | - |
| 1787463125 | 13.33° C | 89% | 1022.5 hPa | 0 mm | - | - | - |
| 1787462225 | 13.33° C | 89% | 1022.4 hPa | 0 mm | - | - | - |
| 1787461326 | 13.33° C | 89% | 1022.3 hPa | 0 mm | - | - | - |
| 1787460426 | 13.33° C | 90% | 1022.1 hPa | 0 mm | - | - | - |
| 1787459525 | 13.33° C | 90% | 1022.1 hPa | 0 mm | - | - | - |
| 1787458625 | 13.33° C | 90% | 1021.9 hPa | 0 mm | - | - | - |
| 1787457725 | 12.78° C | 89% | 1021.9 hPa | 0 mm | - | - | - |
| 1787456825 | 12.78° C | 89% | 1021.8 hPa | 0 mm | - | - | - |
| 1787455925 | 12.78° C | 90% | 1021.7 hPa | 0 mm | - | - | - |
| 1787455025 | 12.78° C | 89% | 1021.6 hPa | 0 mm | - | - | - |
* Rain latest hour (hover to see other rain measurements)
** Current wind speed in m/s (hover to see current wind gust speed)